Dickinson Theodore Roosevelt Regional Airport Dickinson US
ICAO: KDIK
IATA: DIK
Category: Medium
Scheduled Services: No

Elevation: 2592 ft
TransAlt. 18000 ft.

Airport Communications:
MINNEAPOLIS CNTR:124.25
GRAND FORKS RDO:122.2
CTAF/UNICOM:123

KDIK Zoom In..

Runways:

(A) RW 07 length 4699 ft width 75 ft
---- / hdg 70

(B) RW 14 length 6399 ft width 100 ft
---- / hdg 140

(C) RW 25 length 4699 ft width 75 ft
---- / hdg 250

(D) RW 32 length 6399 ft width 100 ft
ILS 108.30 / hdg 320

Location; KDIK
Day. 29 / Time. 18.56 Zulu
* Altimeter: 30.39
* Temperature: 01° c. 33.8°f.
* Wind from: 270° Speed 10 kn.
Dewpoint: -11° c.
Visibility: 10 Statute Miles.
Clouds: Clear (automated report).

KDIK 291856Z AUTO 27010KT 10SM CLR 01/M11 A3039 RMK AO2 SLP323 T00061111

Going to: --> -->


Wind From 270°
Speed 10 kn.

 
 
jpsmedia worldairports.se 2020   terms of use